createdAt,value
2022-10-20T03:56:40.610Z,5.53
2022-10-20T03:59:29.592Z,5.43
2022-10-20T04:02:33.866Z,4.57
2022-10-20T04:05:22.152Z,5.30
2022-10-20T04:08:12.863Z,4.10
2022-10-20T04:11:00.067Z,6.37
2022-10-20T04:13:46.545Z,5.10
2022-10-20T04:16:33.342Z,4.57
2022-10-20T04:19:19.986Z,9.43
2022-10-20T04:22:08.652Z,5.07
2022-10-20T04:24:59.166Z,6.68
2022-10-20T04:27:47.614Z,5.82
2022-10-20T04:30:34.070Z,8.77
2022-10-20T04:33:28.777Z,9.40
2022-10-20T04:36:15.488Z,9.30
2022-10-20T04:39:06.633Z,11.15
2022-10-20T04:41:56.921Z,6.12
2022-10-20T04:44:44.142Z,7.23
2022-10-20T04:47:34.016Z,13.90
2022-10-20T04:50:22.079Z,13.15
2022-10-20T04:53:25.894Z,11.90
2022-10-20T04:56:19.859Z,11.60
2022-10-20T04:59:09.662Z,8.55
2022-10-20T05:02:10.470Z,8.93
2022-10-20T05:04:57.416Z,9.25
2022-10-20T05:07:45.713Z,7.43
2022-10-20T05:10:39.983Z,7.78
2022-10-20T05:13:27.852Z,10.93
2022-10-20T05:16:17.608Z,6.37
2022-10-20T05:19:06.677Z,6.57
2022-10-20T05:21:57.479Z,7.45
2022-10-20T05:24:44.608Z,8.45
2022-10-20T05:27:31.696Z,8.15
2022-10-20T05:30:18.363Z,9.70
2022-10-20T05:33:06.041Z,8.50
2022-10-20T05:35:54.766Z,11.52
2022-10-20T05:38:41.262Z,19.65
2022-10-20T05:41:33.497Z,20.02
2022-10-20T05:44:24.054Z,19.60
2022-10-20T05:47:14.676Z,19.40
2022-10-20T05:50:03.509Z,18.15
2022-10-20T05:52:53.229Z,17.20
2022-10-20T05:55:40.631Z,15.82
2022-10-20T05:58:38.518Z,14.13
2022-10-20T06:01:27.028Z,12.93
2022-10-20T06:04:25.503Z,15.60
2022-10-20T06:07:18.591Z,9.48
2022-10-20T06:10:07.740Z,12.15
2022-10-20T06:12:55.027Z,16.12
2022-10-20T06:15:49.371Z,13.00
2022-10-20T06:18:40.410Z,19.83
2022-10-20T06:21:29.448Z,17.58
2022-10-20T06:24:18.772Z,17.30
2022-10-20T06:27:05.155Z,14.98
2022-10-20T06:29:54.860Z,16.33
2022-10-20T06:32:44.854Z,15.15
2022-10-20T06:35:33.574Z,12.02
2022-10-20T06:38:19.768Z,15.77
2022-10-20T06:41:08.845Z,10.60
2022-10-20T06:43:59.374Z,12.85
2022-10-20T06:46:46.028Z,23.48
2022-10-20T06:49:39.566Z,11.35
2022-10-20T06:52:26.930Z,12.25
2022-10-20T06:55:15.305Z,12.82
2022-10-20T06:58:03.055Z,9.07
2022-10-20T07:01:11.077Z,10.65
2022-10-20T07:04:00.697Z,13.00
2022-10-20T07:06:48.465Z,10.65
2022-10-20T07:09:35.224Z,9.32
2022-10-20T07:12:21.560Z,10.65
2022-10-20T07:15:09.453Z,8.95
2022-10-20T07:17:57.003Z,8.63
2022-10-20T07:20:43.704Z,7.15
2022-10-20T07:23:32.611Z,8.23
2022-10-20T07:26:24.797Z,11.95
2022-10-20T07:29:11.931Z,8.07
2022-10-20T07:32:01.424Z,8.55
2022-10-20T07:34:51.228Z,6.85
2022-10-20T07:37:38.630Z,7.18
2022-10-20T07:40:31.731Z,7.68
2022-10-20T07:43:20.208Z,8.43
2022-10-20T07:46:08.552Z,11.25
2022-10-20T07:52:07.730Z,6.75
2022-10-20T07:55:01.615Z,5.62
2022-10-20T07:58:00.709Z,8.35
2022-10-20T08:00:53.986Z,5.62
2022-10-20T08:03:42.531Z,8.57
2022-10-20T08:06:29.640Z,7.90
2022-10-20T08:09:16.257Z,6.03
2022-10-20T08:12:04.641Z,8.02
2022-10-20T08:14:52.144Z,5.03
2022-10-20T08:17:40.537Z,6.47
2022-10-20T08:20:30.309Z,7.80
2022-10-20T08:23:18.336Z,6.87
2022-10-20T08:26:09.052Z,7.43
2022-10-20T08:28:56.971Z,5.97
2022-10-20T08:31:46.403Z,6.90
2022-10-20T08:34:32.879Z,7.47
2022-10-20T08:37:19.723Z,6.57
2022-10-20T08:43:17.671Z,6.60
2022-10-20T08:46:16.533Z,6.15
2022-10-20T08:49:06.294Z,5.90
2022-10-20T08:51:55.006Z,8.20
2022-10-20T08:54:42.285Z,10.10
2022-10-20T08:57:34.563Z,9.93
2022-10-20T09:00:25.638Z,9.07
2022-10-20T09:03:27.734Z,8.77
2022-10-20T09:06:16.508Z,5.45
2022-10-20T09:09:04.014Z,8.30
2022-10-20T09:11:51.546Z,6.12
2022-10-20T09:14:38.132Z,2.75
2022-10-20T09:17:26.002Z,4.47
2022-10-20T09:20:23.936Z,4.70
2022-10-20T09:23:41.488Z,5.05
2022-10-20T09:29:48.630Z,2.90
2022-10-20T09:32:52.908Z,2.95
2022-10-20T09:35:41.416Z,4.75
2022-10-20T09:38:30.429Z,3.37
2022-10-20T09:41:22.440Z,3.62
2022-10-20T14:57:10.450Z,5.10
2022-10-20T15:00:21.718Z,40.10
2022-10-20T15:03:14.667Z,4.87
2022-10-20T15:06:04.867Z,5.82
2022-10-20T16:06:25.061Z,27.70
2022-10-20T16:09:16.149Z,27.35
2022-10-20T16:12:11.621Z,26.50
2022-10-20T16:15:02.554Z,20.67
2022-10-20T18:30:11.485Z,53.17
2022-10-20T18:36:08.280Z,48.58
2022-10-20T18:42:12.548Z,51.37
2022-10-20T18:45:09.398Z,47.75
2022-10-20T18:48:00.122Z,52.20
2022-10-20T18:51:04.601Z,48.90
2022-10-20T18:54:07.518Z,49.22
2022-10-20T18:57:09.547Z,50.20
2022-10-20T19:00:09.858Z,52.60
2022-10-20T19:03:02.499Z,54.25
2022-10-20T19:06:05.737Z,50.88
2022-10-20T19:09:00.539Z,55.10
2022-10-20T19:11:57.542Z,47.03
2022-10-20T19:14:45.512Z,46.22
2022-10-20T19:20:38.501Z,40.87
2022-10-20T19:23:37.011Z,40.28
2022-10-20T19:26:35.238Z,45.00
2022-10-20T19:29:36.671Z,44.42
2022-10-20T19:32:25.461Z,43.75
2022-10-20T19:38:07.844Z,47.08
2022-10-20T19:43:54.652Z,45.92
2022-10-20T19:52:59.003Z,41.60
2022-10-20T19:55:53.600Z,46.05
2022-10-20T19:58:48.473Z,39.63
2022-10-20T20:01:38.500Z,40.92
2022-10-20T20:04:29.991Z,42.72
2022-10-20T20:07:26.759Z,53.08
2022-10-20T20:10:13.842Z,61.53
2022-10-20T20:13:08.526Z,58.90
2022-10-20T20:16:04.872Z,53.00
2022-10-20T20:18:54.729Z,54.33
2022-10-20T20:21:43.825Z,53.70
2022-10-20T20:24:36.596Z,51.43
2022-10-20T20:27:25.726Z,52.10
2022-10-20T20:30:12.197Z,49.97
2022-10-20T20:32:59.770Z,52.60
2022-10-20T20:35:50.566Z,54.35
2022-10-20T20:38:44.561Z,58.33
2022-10-20T20:44:31.921Z,56.25
2022-10-20T20:47:22.531Z,54.88
2022-10-20T20:50:16.454Z,53.93
2022-10-20T20:53:12.538Z,53.58
2022-10-20T20:56:04.962Z,53.15
2022-10-20T20:58:55.102Z,54.17
2022-10-20T21:01:45.178Z,57.35
2022-10-20T21:04:34.002Z,62.17
2022-10-20T21:07:20.317Z,64.23
2022-10-20T21:10:14.321Z,68.70
2022-10-20T21:16:10.397Z,60.72
2022-10-20T21:18:58.669Z,58.13
2022-10-20T21:21:50.587Z,54.90
2022-10-20T21:24:37.513Z,53.20
2022-10-20T21:27:23.917Z,50.13
2022-10-20T21:30:13.437Z,40.88
2022-10-20T21:33:01.187Z,23.25
2022-10-20T21:35:53.287Z,20.08
2022-10-20T21:38:44.574Z,23.12
2022-10-20T21:41:32.176Z,52.63
2022-10-20T21:44:18.798Z,56.00
2022-10-20T21:47:06.620Z,69.17
2022-10-20T21:49:54.551Z,67.00
2022-10-20T21:52:40.906Z,65.95
2022-10-20T21:55:27.161Z,56.28
2022-10-20T21:58:13.737Z,55.47
2022-10-20T22:01:00.212Z,44.40
2022-10-20T22:03:48.729Z,39.38
2022-10-20T22:06:37.030Z,26.65
